Details From YBRM - Broome Intl
To YBCS - Cairns Intl
Flight Number -
Tags Generated
Created
Modified
Stats Distance 1,350 nm / 2,500 km
Max Altitude 0 ft / 0 m
Waypoints 4
Social Downloads 2
Likes 0
Share VATSIM

Download

Looking for another format? Having issues loading an existing format? Contact us
Advertisement - Login to hide

Notes

Generated

Route

YBRM HOOWC WVFRN YBCS

ID Type Via Altitude Latitude Longitude Leg Dist Tot Dist Heading (true) Name
O YBRM APT - 0 ft / 0 m -17.94581˚ 122.21626˚ - 0 nm - -
HOOWC FIX - 0 ft / 0 m -18.21832˚ 130.44411˚ 469 nm 469 nm 93° / 91° -
WVFRN FIX - 0 ft / 0 m -16.88806˚ 145.69306˚ 876 nm 1346 nm 87° / 82° -
O YBCS APT - 0 ft / 0 m -16.88101˚ 145.75261˚ 3 nm 1349 nm 83° / 83° Cairns Intl

Altitude Profile

Advertisement - Login to hide

Weather


0- 5 10 15 20 25 30 35+ Temperature / ° C

Clouds and Precipitation
Forecast for 2017-12-18 12:00 UTC. Updated 16 minutes ago

Ground ~20,000 ft ~40,000 ft Winds

YBRM

Details ICAO YBRM
Name Broome Intl
Region Australia
Timezone Australia/Perth (UTC+8.0)
Stats Elevation 56 ft / 17 m (AMSL)
Location -17.948745° 122.227225°
Runways 1
Magnetic Variation 1.800° E

METAR

YBRM 180900Z AUTO 28011KT 9999 // SCT017 31/24 Q1004

Decode

TAF

TAF YBRM 180505Z 1806/1906 28010KT CAVOK FM181200 26008KT 9999 SCT015 FM190000 28012KT CAVOK

Decode

Departure Runways

ID Width Length Bearing (true) Bearing (mag) Surface Threshold Offset Overrun Length
10 148 ft / 45 m 8,325 ft / 2,537 m 105.60° 103.80° Asphalt 292 ft / 89 m 52 ft / 16 m
28 148 ft / 45 m 8,325 ft / 2,537 m 285.60° 283.80° Asphalt 666 ft / 203 m 0 ft / 0 m

YBCS

Details ICAO YBCS (CNS)
Name Cairns Intl
Region Australia
Timezone Australia/Brisbane (UTC+10.0)
Stats Elevation 10 ft / 3 m (AMSL)
Location -16.881079° 145.752598°
Runways 2
Magnetic Variation 6.715° E

METAR

YBCS 180900Z 12009KT 9999 FEW025 28/22 Q1009 NOSIG

Decode

TAF

TAF YBCS 180531Z 1806/1906 12014KT 9999 SCT030 FM180900 17008KT 9999 -SHRA SCT025 FM182200 13010KT 9999 SCT028 FM190100 09012KT 9999 SCT030

Decode

Destination Runways

ID Width Length Bearing (true) Bearing (mag) Surface Threshold Offset Overrun Length
12 62 ft / 19 m 3,045 ft / 928 m 125.77° 119.06° Asphalt 0 ft / 0 m 0 ft / 0 m
15 148 ft / 45 m 10,522 ft / 3,207 m 156.60° 149.89° Asphalt 0 ft / 0 m 328 ft / 100 m
30 62 ft / 19 m 3,045 ft / 928 m 305.77° 299.06° Asphalt 0 ft / 0 m 0 ft / 0 m
33 148 ft / 45 m 10,522 ft / 3,207 m 336.60° 329.89° Asphalt 0 ft / 0 m 0 ft / 0 m

Approach Navaids

Runway Type Ident Frequency Range Bearing (true) Bearing (mag) Slope Elevation
15 Localiser ICS 109.90 MHz 18 nm / 33 km 156.88° 150.17° - 9 ft / 3 m (AMSL)
15 Glidescope ICS 109.90 MHz 10 nm / 19 km 156.60° 149.89° 3.00° 9 ft / 3 m (AMSL)
15 DME ICS 109.90 MHz 18 nm / 33 km - - - 10 ft / 3 m (AMSL)
33 Localiser ICN 109.50 MHz 18 nm / 33 km 336.59° 329.88° - 7 ft / 2 m (AMSL)
33 DME ICN 109.50 MHz 18 nm / 33 km - - - 10 ft / 3 m (AMSL)

Popular Alternatives